sensor_id;sensor_type;location;lat;lon;timestamp;temperature;humidity
75688;HTU21D;64300;45.034;38.910;2022-11-15T00:01:14;3.38;83.16
75688;HTU21D;64300;45.034;38.910;2022-11-15T00:03:59;3.33;83.07
75688;HTU21D;64300;45.034;38.910;2022-11-15T00:06:43;3.29;83.21
75688;HTU21D;64300;45.034;38.910;2022-11-15T00:09:28;3.26;83.42
75688;HTU21D;64300;45.034;38.910;2022-11-15T00:12:15;3.26;83.40
75688;HTU21D;64300;45.034;38.910;2022-11-15T00:15:00;3.21;83.47
75688;HTU21D;64300;45.034;38.910;2022-11-15T00:17:44;3.19;83.52
75688;HTU21D;64300;45.034;38.910;2022-11-15T00:20:38;3.18;83.58
75688;HTU21D;64300;45.034;38.910;2022-11-15T00:23:25;3.15;83.52
75688;HTU21D;64300;45.034;38.910;2022-11-15T00:26:11;3.13;83.72
75688;HTU21D;64300;45.034;38.910;2022-11-15T00:28:56;3.10;83.70
75688;HTU21D;64300;45.034;38.910;2022-11-15T00:31:40;3.08;83.78
75688;HTU21D;64300;45.034;38.910;2022-11-15T00:34:25;3.09;83.58
75688;HTU21D;64300;45.034;38.910;2022-11-15T00:37:09;3.03;83.92
75688;HTU21D;64300;45.034;38.910;2022-11-15T00:39:54;3.02;83.64
75688;HTU21D;64300;45.034;38.910;2022-11-15T00:42:39;3.00;83.45
75688;HTU21D;64300;45.034;38.910;2022-11-15T00:45:24;2.93;83.17
75688;HTU21D;64300;45.034;38.910;2022-11-15T00:48:09;2.81;82.97
75688;HTU21D;64300;45.034;38.910;2022-11-15T00:50:54;2.69;82.80
75688;HTU21D;64300;45.034;38.910;2022-11-15T00:53:39;2.57;82.79
75688;HTU21D;64300;45.034;38.910;2022-11-15T00:56:23;2.47;82.92
75688;HTU21D;64300;45.034;38.910;2022-11-15T00:59:08;2.38;83.04
75688;HTU21D;64300;45.034;38.910;2022-11-15T01:01:52;2.29;83.22
75688;HTU21D;64300;45.034;38.910;2022-11-15T01:04:37;2.21;83.31
75688;HTU21D;64300;45.034;38.910;2022-11-15T01:07:52;2.15;83.50
75688;HTU21D;64300;45.034;38.910;2022-11-15T01:11:26;2.08;83.89
75688;HTU21D;64300;45.034;38.910;2022-11-15T01:14:31;2.03;83.92
75688;HTU21D;64300;45.034;38.910;2022-11-15T01:17:15;2.03;84.29
75688;HTU21D;64300;45.034;38.910;2022-11-15T01:20:00;2.03;84.43
75688;HTU21D;64300;45.034;38.910;2022-11-15T01:22:44;2.05;84.58
75688;HTU21D;64300;45.034;38.910;2022-11-15T01:25:29;2.07;84.73
75688;HTU21D;64300;45.034;38.910;2022-11-15T01:28:14;2.10;84.82
75688;HTU21D;64300;45.034;38.910;2022-11-15T01:34:28;2.11;84.80
75688;HTU21D;64300;45.034;38.910;2022-11-15T01:37:14;2.09;84.89
75688;HTU21D;64300;45.034;38.910;2022-11-15T01:39:58;2.09;85.00
75688;HTU21D;64300;45.034;38.910;2022-11-15T01:42:43;2.08;85.00
75688;HTU21D;64300;45.034;38.910;2022-11-15T01:45:32;2.09;85.08
75688;HTU21D;64300;45.034;38.910;2022-11-15T01:48:20;2.09;85.09
75688;HTU21D;64300;45.034;38.910;2022-11-15T01:51:10;2.15;85.25
75688;HTU21D;64300;45.034;38.910;2022-11-15T01:54:00;2.17;85.27
75688;HTU21D;64300;45.034;38.910;2022-11-15T01:56:59;2.22;85.17
75688;HTU21D;64300;45.034;38.910;2022-11-15T01:59:46;2.23;85.02
75688;HTU21D;64300;45.034;38.910;2022-11-15T02:02:31;2.23;84.90
75688;HTU21D;64300;45.034;38.910;2022-11-15T02:05:16;2.19;84.66
75688;HTU21D;64300;45.034;38.910;2022-11-15T02:08:01;2.16;84.49
75688;HTU21D;64300;45.034;38.910;2022-11-15T02:10:46;2.12;84.42
75688;HTU21D;64300;45.034;38.910;2022-11-15T02:13:31;2.07;84.35
75688;HTU21D;64300;45.034;38.910;2022-11-15T02:19:40;1.97;84.63
75688;HTU21D;64300;45.034;38.910;2022-11-15T02:41:09;1.70;84.97
75688;HTU21D;64300;45.034;38.910;2022-11-15T02:47:13;1.65;85.04
75688;HTU21D;64300;45.034;38.910;2022-11-15T02:50:08;1.64;85.19
75688;HTU21D;64300;45.034;38.910;2022-11-15T02:52:54;1.64;85.26
75688;HTU21D;64300;45.034;38.910;2022-11-15T02:55:45;1.64;85.31
75688;HTU21D;64300;45.034;38.910;2022-11-15T03:05:27;1.55;85.38
75688;HTU21D;64300;45.034;38.910;2022-11-15T03:08:18;1.53;85.47
75688;HTU21D;64300;45.034;38.910;2022-11-15T03:11:11;1.53;85.51
75688;HTU21D;64300;45.034;38.910;2022-11-15T03:35:34;1.54;85.80
75688;HTU21D;64300;45.034;38.910;2022-11-15T03:38:25;1.56;85.86
75688;HTU21D;64300;45.034;38.910;2022-11-15T03:41:26;1.58;85.96
75688;HTU21D;64300;45.034;38.910;2022-11-15T03:45:03;1.64;86.05
75688;HTU21D;64300;45.034;38.910;2022-11-15T03:47:39;1.69;86.04
75688;HTU21D;64300;45.034;38.910;2022-11-15T03:50:26;1.70;85.84
75688;HTU21D;64300;45.034;38.910;2022-11-15T03:53:16;1.75;85.84
75688;HTU21D;64300;45.034;38.910;2022-11-15T03:56:00;1.76;85.87
75688;HTU21D;64300;45.034;38.910;2022-11-15T03:58:45;1.78;85.88
75688;HTU21D;64300;45.034;38.910;2022-11-15T04:01:29;1.81;85.81
75688;HTU21D;64300;45.034;38.910;2022-11-15T04:04:14;1.82;85.78
75688;HTU21D;64300;45.034;38.910;2022-11-15T04:06:58;1.83;85.74
75688;HTU21D;64300;45.034;38.910;2022-11-15T04:09:43;1.83;85.70
75688;HTU21D;64300;45.034;38.910;2022-11-15T04:12:46;1.85;85.74
75688;HTU21D;64300;45.034;38.910;2022-11-15T04:15:31;1.83;85.80
75688;HTU21D;64300;45.034;38.910;2022-11-15T04:18:16;1.82;85.80
75688;HTU21D;64300;45.034;38.910;2022-11-15T04:21:01;1.82;85.72
75688;HTU21D;64300;45.034;38.910;2022-11-15T04:24:04;1.80;85.74
75688;HTU21D;64300;45.034;38.910;2022-11-15T04:26:51;1.80;85.89
75688;HTU21D;64300;45.034;38.910;2022-11-15T04:29:36;1.80;85.89
75688;HTU21D;64300;45.034;38.910;2022-11-15T04:32:20;1.78;85.88
75688;HTU21D;64300;45.034;38.910;2022-11-15T04:35:05;1.80;85.90
75688;HTU21D;64300;45.034;38.910;2022-11-15T04:37:49;1.78;85.96
75688;HTU21D;64300;45.034;38.910;2022-11-15T04:40:34;1.79;86.06
75688;HTU21D;64300;45.034;38.910;2022-11-15T04:43:19;1.80;86.11
75688;HTU21D;64300;45.034;38.910;2022-11-15T04:46:04;1.81;86.10
75688;HTU21D;64300;45.034;38.910;2022-11-15T04:48:48;1.79;86.15
75688;HTU21D;64300;45.034;38.910;2022-11-15T04:51:33;1.78;86.10
75688;HTU21D;64300;45.034;38.910;2022-11-15T04:54:18;1.76;86.12
75688;HTU21D;64300;45.034;38.910;2022-11-15T04:57:03;1.75;86.22
75688;HTU21D;64300;45.034;38.910;2022-11-15T04:59:54;1.72;86.31
75688;HTU21D;64300;45.034;38.910;2022-11-15T05:02:39;1.70;86.33
75688;HTU21D;64300;45.034;38.910;2022-11-15T05:05:42;1.70;86.51
75688;HTU21D;64300;45.034;38.910;2022-11-15T05:08:26;1.72;86.63
75688;HTU21D;64300;45.034;38.910;2022-11-15T05:11:12;1.72;86.67
75688;HTU21D;64300;45.034;38.910;2022-11-15T05:13:57;1.76;86.75
75688;HTU21D;64300;45.034;38.910;2022-11-15T05:16:41;1.77;86.79
75688;HTU21D;64300;45.034;38.910;2022-11-15T05:19:26;1.80;86.75
75688;HTU21D;64300;45.034;38.910;2022-11-15T05:22:11;1.82;86.75
75688;HTU21D;64300;45.034;38.910;2022-11-15T05:24:55;1.85;86.80
75688;HTU21D;64300;45.034;38.910;2022-11-15T05:27:40;1.91;86.80
75688;HTU21D;64300;45.034;38.910;2022-11-15T05:30:24;1.95;86.76
75688;HTU21D;64300;45.034;38.910;2022-11-15T05:33:09;1.98;86.68
75688;HTU21D;64300;45.034;38.910;2022-11-15T05:36:48;2.02;86.64
75688;HTU21D;64300;45.034;38.910;2022-11-15T05:39:07;2.05;86.42
75688;HTU21D;64300;45.034;38.910;2022-11-15T05:42:00;2.05;86.35
75688;HTU21D;64300;45.034;38.910;2022-11-15T05:44:53;2.06;86.33
75688;HTU21D;64300;45.034;38.910;2022-11-15T05:47:38;2.08;86.37
75688;HTU21D;64300;45.034;38.910;2022-11-15T05:50:23;2.15;86.38
75688;HTU21D;64300;45.034;38.910;2022-11-15T05:53:09;2.22;86.35
75688;HTU21D;64300;45.034;38.910;2022-11-15T05:55:54;2.28;86.30
75688;HTU21D;64300;45.034;38.910;2022-11-15T05:58:39;2.38;86.25
75688;HTU21D;64300;45.034;38.910;2022-11-15T06:01:24;2.46;86.20
75688;HTU21D;64300;45.034;38.910;2022-11-15T06:04:09;2.51;86.15
75688;HTU21D;64300;45.034;38.910;2022-11-15T06:06:54;2.61;86.22
75688;HTU21D;64300;45.034;38.910;2022-11-15T06:09:38;2.73;86.21
75688;HTU21D;64300;45.034;38.910;2022-11-15T06:12:22;2.87;86.21
75688;HTU21D;64300;45.034;38.910;2022-11-15T06:15:08;3.02;86.18
75688;HTU21D;64300;45.034;38.910;2022-11-15T06:17:56;3.19;86.08
75688;HTU21D;64300;45.034;38.910;2022-11-15T06:20:41;3.35;85.83
75688;HTU21D;64300;45.034;38.910;2022-11-15T06:23:26;3.47;85.61
75688;HTU21D;64300;45.034;38.910;2022-11-15T06:26:10;3.63;85.55
75688;HTU21D;64300;45.034;38.910;2022-11-15T06:28:55;3.80;85.36
75688;HTU21D;64300;45.034;38.910;2022-11-15T06:31:39;3.95;85.08
75688;HTU21D;64300;45.034;38.910;2022-11-15T06:34:24;4.09;84.75
75688;HTU21D;64300;45.034;38.910;2022-11-15T06:37:08;4.22;84.52
75688;HTU21D;64300;45.034;38.910;2022-11-15T06:39:53;4.35;84.15
75688;HTU21D;64300;45.034;38.910;2022-11-15T06:42:38;4.45;84.12
75688;HTU21D;64300;45.034;38.910;2022-11-15T06:45:22;4.54;83.81
75688;HTU21D;64300;45.034;38.910;2022-11-15T06:48:07;4.63;83.59
75688;HTU21D;64300;45.034;38.910;2022-11-15T06:50:52;4.73;83.39
75688;HTU21D;64300;45.034;38.910;2022-11-15T06:53:41;4.86;83.23
75688;HTU21D;64300;45.034;38.910;2022-11-15T06:56:26;4.95;82.86
75688;HTU21D;64300;45.034;38.910;2022-11-15T06:59:11;5.01;82.70
75688;HTU21D;64300;45.034;38.910;2022-11-15T07:01:56;5.09;82.55
75688;HTU21D;64300;45.034;38.910;2022-11-15T07:04:41;5.16;82.33
75688;HTU21D;64300;45.034;38.910;2022-11-15T07:07:31;5.25;82.20
75688;HTU21D;64300;45.034;38.910;2022-11-15T07:10:16;5.37;82.09
75688;HTU21D;64300;45.034;38.910;2022-11-15T07:13:00;5.48;81.90
75688;HTU21D;64300;45.034;38.910;2022-11-15T07:15:48;5.57;81.64
75688;HTU21D;64300;45.034;38.910;2022-11-15T07:18:37;5.66;81.29
75688;HTU21D;64300;45.034;38.910;2022-11-15T07:21:21;5.76;81.07
75688;HTU21D;64300;45.034;38.910;2022-11-15T07:24:06;5.80;80.93
75688;HTU21D;64300;45.034;38.910;2022-11-15T07:26:50;5.86;80.89
75688;HTU21D;64300;45.034;38.910;2022-11-15T07:29:35;5.94;80.79
75688;HTU21D;64300;45.034;38.910;2022-11-15T07:32:19;6.05;80.68
75688;HTU21D;64300;45.034;38.910;2022-11-15T07:35:04;6.15;80.51
75688;HTU21D;64300;45.034;38.910;2022-11-15T07:37:55;6.21;80.43
75688;HTU21D;64300;45.034;38.910;2022-11-15T07:40:40;6.20;80.40
75688;HTU21D;64300;45.034;38.910;2022-11-15T07:43:25;6.17;80.47
75688;HTU21D;64300;45.034;38.910;2022-11-15T07:46:12;6.14;80.25
75688;HTU21D;64300;45.034;38.910;2022-11-15T07:48:57;6.01;80.45
75688;HTU21D;64300;45.034;38.910;2022-11-15T07:51:41;5.94;81.02
75688;HTU21D;64300;45.034;38.910;2022-11-15T07:54:25;5.83;81.64
75688;HTU21D;64300;45.034;38.910;2022-11-15T07:57:10;5.81;82.31
75688;HTU21D;64300;45.034;38.910;2022-11-15T07:59:54;5.82;82.42
75688;HTU21D;64300;45.034;38.910;2022-11-15T08:02:39;5.82;82.33
75688;HTU21D;64300;45.034;38.910;2022-11-15T08:05:23;5.83;82.66
75688;HTU21D;64300;45.034;38.910;2022-11-15T08:08:10;5.91;82.78
75688;HTU21D;64300;45.034;38.910;2022-11-15T08:10:57;6.00;82.89
75688;HTU21D;64300;45.034;38.910;2022-11-15T08:13:42;6.10;82.87
75688;HTU21D;64300;45.034;38.910;2022-11-15T08:16:29;6.17;82.84
75688;HTU21D;64300;45.034;38.910;2022-11-15T08:19:14;6.26;82.73
75688;HTU21D;64300;45.034;38.910;2022-11-15T08:21:58;6.35;82.51
75688;HTU21D;64300;45.034;38.910;2022-11-15T08:24:43;6.41;82.43
75688;HTU21D;64300;45.034;38.910;2022-11-15T08:27:29;6.49;82.24
75688;HTU21D;64300;45.034;38.910;2022-11-15T08:30:14;6.53;81.95
75688;HTU21D;64300;45.034;38.910;2022-11-15T08:33:00;6.54;81.78
75688;HTU21D;64300;45.034;38.910;2022-11-15T08:36:09;6.56;81.49
75688;HTU21D;64300;45.034;38.910;2022-11-15T08:38:55;6.56;81.16
75688;HTU21D;64300;45.034;38.910;2022-11-15T08:41:40;6.61;80.03
75688;HTU21D;64300;45.034;38.910;2022-11-15T08:44:24;6.66;79.19
75688;HTU21D;64300;45.034;38.910;2022-11-15T08:47:11;6.75;78.16
75688;HTU21D;64300;45.034;38.910;2022-11-15T08:49:55;6.80;77.97
75688;HTU21D;64300;45.034;38.910;2022-11-15T08:52:40;6.85;77.52
75688;HTU21D;64300;45.034;38.910;2022-11-15T08:55:25;6.93;76.51
75688;HTU21D;64300;45.034;38.910;2022-11-15T08:58:09;6.97;76.31
75688;HTU21D;64300;45.034;38.910;2022-11-15T09:00:54;7.03;75.83
75688;HTU21D;64300;45.034;38.910;2022-11-15T09:03:40;7.08;75.54
75688;HTU21D;64300;45.034;38.910;2022-11-15T09:06:25;7.11;75.46
75688;HTU21D;64300;45.034;38.910;2022-11-15T09:09:10;7.14;75.29
75688;HTU21D;64300;45.034;38.910;2022-11-15T09:11:55;7.20;75.02
75688;HTU21D;64300;45.034;38.910;2022-11-15T09:14:39;7.27;74.51
75688;HTU21D;64300;45.034;38.910;2022-11-15T09:17:24;7.34;73.40
75688;HTU21D;64300;45.034;38.910;2022-11-15T09:20:09;7.40;73.26
75688;HTU21D;64300;45.034;38.910;2022-11-15T09:23:02;7.43;64.59
75688;HTU21D;64300;45.034;38.910;2022-11-15T09:25:47;7.53;69.87
75688;HTU21D;64300;45.034;38.910;2022-11-15T09:28:32;7.55;70.42
75688;HTU21D;64300;45.034;38.910;2022-11-15T09:31:17;7.54;70.00
75688;HTU21D;64300;45.034;38.910;2022-11-15T09:34:04;7.55;70.36
75688;HTU21D;64300;45.034;38.910;2022-11-15T09:36:49;7.59;70.83
75688;HTU21D;64300;45.034;38.910;2022-11-15T09:39:33;7.65;70.48
75688;HTU21D;64300;45.034;38.910;2022-11-15T09:45:20;7.68;70.61
75688;HTU21D;64300;45.034;38.910;2022-11-15T09:48:37;7.67;70.23
75688;HTU21D;64300;45.034;38.910;2022-11-15T09:51:34;7.67;69.96
75688;HTU21D;64300;45.034;38.910;2022-11-15T09:56:56;7.72;70.30
75688;HTU21D;64300;45.034;38.910;2022-11-15T10:05:11;7.83;69.21
75688;HTU21D;64300;45.034;38.910;2022-11-15T10:07:50;7.86;68.95
75688;HTU21D;64300;45.034;38.910;2022-11-15T10:13:02;7.83;69.80
75688;HTU21D;64300;45.034;38.910;2022-11-15T10:15:28;7.85;69.58
75688;HTU21D;64300;45.034;38.910;2022-11-15T10:21:02;7.85;70.08
75688;HTU21D;64300;45.034;38.910;2022-11-15T10:23:35;7.87;69.99
75688;HTU21D;64300;45.034;38.910;2022-11-15T10:26:01;7.89;69.81
75688;HTU21D;64300;45.034;38.910;2022-11-15T10:28:30;7.87;69.58
75688;HTU21D;64300;45.034;38.910;2022-11-15T10:30:58;7.88;69.23
75688;HTU21D;64300;45.034;38.910;2022-11-15T10:33:36;7.89;69.36
75688;HTU21D;64300;45.034;38.910;2022-11-15T10:41:30;7.97;68.39
75688;HTU21D;64300;45.034;38.910;2022-11-15T10:46:41;7.98;68.73
75688;HTU21D;64300;45.034;38.910;2022-11-15T10:49:21;8.00;68.58
75688;HTU21D;64300;45.034;38.910;2022-11-15T10:54:47;8.04;68.25
75688;HTU21D;64300;45.034;38.910;2022-11-15T10:57:20;8.05;68.21
75688;HTU21D;64300;45.034;38.910;2022-11-15T10:59:54;8.05;68.10
75688;HTU21D;64300;45.034;38.910;2022-11-15T11:02:34;8.07;67.69
75688;HTU21D;64300;45.034;38.910;2022-11-15T11:05:01;8.06;67.75
75688;HTU21D;64300;45.034;38.910;2022-11-15T11:07:33;8.07;67.81
75688;HTU21D;64300;45.034;38.910;2022-11-15T11:10:20;8.09;67.39
75688;HTU21D;64300;45.034;38.910;2022-11-15T11:12:49;8.08;67.58
75688;HTU21D;64300;45.034;38.910;2022-11-15T11:15:16;8.09;67.48
75688;HTU21D;64300;45.034;38.910;2022-11-15T11:28:38;8.00;67.88
75688;HTU21D;64300;45.034;38.910;2022-11-15T11:37:11;7.99;67.81
75688;HTU21D;64300;45.034;38.910;2022-11-15T11:45:49;8.05;67.47
75688;HTU21D;64300;45.034;38.910;2022-11-15T11:48:46;8.06;67.05
75688;HTU21D;64300;45.034;38.910;2022-11-15T11:51:30;8.08;66.98
75688;HTU21D;64300;45.034;38.910;2022-11-15T11:54:05;8.07;67.04
75688;HTU21D;64300;45.034;38.910;2022-11-15T11:56:39;8.04;64.79
75688;HTU21D;64300;45.034;38.910;2022-11-15T12:02:35;8.08;66.16
75688;HTU21D;64300;45.034;38.910;2022-11-15T12:05:01;8.07;65.27
75688;HTU21D;64300;45.034;38.910;2022-11-15T12:07:34;8.08;65.34
75688;HTU21D;64300;45.034;38.910;2022-11-15T12:10:32;8.13;65.80
75688;HTU21D;64300;45.034;38.910;2022-11-15T12:13:08;8.12;66.04
75688;HTU21D;64300;45.034;38.910;2022-11-15T12:15:41;8.12;66.20
75688;HTU21D;64300;45.034;38.910;2022-11-15T12:18:13;8.08;66.29
75688;HTU21D;64300;45.034;38.910;2022-11-15T12:20:49;8.07;66.33
75688;HTU21D;64300;45.034;38.910;2022-11-15T12:23:25;8.05;66.50
75688;HTU21D;64300;45.034;38.910;2022-11-15T12:26:21;8.03;66.11
75688;HTU21D;64300;45.034;38.910;2022-11-15T12:28:59;8.00;66.86
75688;HTU21D;64300;45.034;38.910;2022-11-15T12:34:35;7.98;66.97
75688;HTU21D;64300;45.034;38.910;2022-11-15T12:37:44;7.93;67.23
75688;HTU21D;64300;45.034;38.910;2022-11-15T12:42:42;7.79;67.64
75688;HTU21D;64300;45.034;38.910;2022-11-15T12:45:44;7.77;67.54
75688;HTU21D;64300;45.034;38.910;2022-11-15T13:00:04;7.60;67.80
75688;HTU21D;64300;45.034;38.910;2022-11-15T13:02:38;7.59;68.00
75688;HTU21D;64300;45.034;38.910;2022-11-15T13:13:04;7.41;68.34
75688;HTU21D;64300;45.034;38.910;2022-11-15T13:16:00;7.35;68.44
75688;HTU21D;64300;45.034;38.910;2022-11-15T13:18:33;7.31;68.62
75688;HTU21D;64300;45.034;38.910;2022-11-15T13:21:00;7.27;68.71
75688;HTU21D;64300;45.034;38.910;2022-11-15T13:23:29;7.24;68.82
75688;HTU21D;64300;45.034;38.910;2022-11-15T13:26:06;7.19;68.81
75688;HTU21D;64300;45.034;38.910;2022-11-15T13:28:48;7.15;68.84
75688;HTU21D;64300;45.034;38.910;2022-11-15T13:31:40;7.11;68.85
75688;HTU21D;64300;45.034;38.910;2022-11-15T13:34:36;7.05;68.91
75688;HTU21D;64300;45.034;38.910;2022-11-15T13:37:03;7.00;69.09
75688;HTU21D;64300;45.034;38.910;2022-11-15T13:39:30;6.93;69.12
75688;HTU21D;64300;45.034;38.910;2022-11-15T13:41:57;6.84;69.25
75688;HTU21D;64300;45.034;38.910;2022-11-15T13:44:28;6.79;69.35
75688;HTU21D;64300;45.034;38.910;2022-11-15T13:47:03;6.75;69.32
75688;HTU21D;64300;45.034;38.910;2022-11-15T13:49:31;6.71;69.38
75688;HTU21D;64300;45.034;38.910;2022-11-15T13:52:00;6.69;69.34
75688;HTU21D;64300;45.034;38.910;2022-11-15T13:54:40;6.66;69.25
75688;HTU21D;64300;45.034;38.910;2022-11-15T13:59:51;6.58;69.23
75688;HTU21D;64300;45.034;38.910;2022-11-15T14:02:25;6.52;69.26
75688;HTU21D;64300;45.034;38.910;2022-11-15T14:04:55;6.48;69.33
75688;HTU21D;64300;45.034;38.910;2022-11-15T14:07:25;6.43;69.37
75688;HTU21D;64300;45.034;38.910;2022-11-15T14:09:52;6.37;69.42
75688;HTU21D;64300;45.034;38.910;2022-11-15T14:12:35;6.33;69.40
75688;HTU21D;64300;45.034;38.910;2022-11-15T14:15:30;6.27;69.55
75688;HTU21D;64300;45.034;38.910;2022-11-15T14:17:56;6.23;69.73
75688;HTU21D;64300;45.034;38.910;2022-11-15T14:20:30;6.20;69.75
75688;HTU21D;64300;45.034;38.910;2022-11-15T14:25:59;6.11;69.90
75688;HTU21D;64300;45.034;38.910;2022-11-15T14:32:37;5.99;70.10
75688;HTU21D;64300;45.034;38.910;2022-11-15T14:35:19;5.95;70.24
75688;HTU21D;64300;45.034;38.910;2022-11-15T14:41:24;5.86;70.55
75688;HTU21D;64300;45.034;38.910;2022-11-15T14:43:57;5.82;70.59
75688;HTU21D;64300;45.034;38.910;2022-11-15T14:46:23;5.79;70.84
75688;HTU21D;64300;45.034;38.910;2022-11-15T14:48:49;5.79;70.71
75688;HTU21D;64300;45.034;38.910;2022-11-15T14:58:41;5.59;71.10
75688;HTU21D;64300;45.034;38.910;2022-11-15T15:01:25;5.53;71.21
75688;HTU21D;64300;45.034;38.910;2022-11-15T15:03:51;5.51;71.35
75688;HTU21D;64300;45.034;38.910;2022-11-15T15:06:20;5.47;71.42
75688;HTU21D;64300;45.034;38.910;2022-11-15T15:08:46;5.47;71.55
75688;HTU21D;64300;45.034;38.910;2022-11-15T15:11:24;5.48;71.61
75688;HTU21D;64300;45.034;38.910;2022-11-15T15:13:58;5.45;71.51
75688;HTU21D;64300;45.034;38.910;2022-11-15T15:16:40;5.39;71.74
75688;HTU21D;64300;45.034;38.910;2022-11-15T15:19:06;5.38;71.87
75688;HTU21D;64300;45.034;38.910;2022-11-15T15:21:32;5.37;72.04
75688;HTU21D;64300;45.034;38.910;2022-11-15T15:23:58;5.38;72.13
75688;HTU21D;64300;45.034;38.910;2022-11-15T15:26:25;5.42;72.12
75688;HTU21D;64300;45.034;38.910;2022-11-15T15:28:51;5.42;72.16
75688;HTU21D;64300;45.034;38.910;2022-11-15T15:31:17;5.45;72.13
75688;HTU21D;64300;45.034;38.910;2022-11-15T15:33:44;5.47;72.07
75688;HTU21D;64300;45.034;38.910;2022-11-15T15:36:17;5.47;72.11
75688;HTU21D;64300;45.034;38.910;2022-11-15T15:38:44;5.47;72.16
75688;HTU21D;64300;45.034;38.910;2022-11-15T15:41:11;5.47;72.23
75688;HTU21D;64300;45.034;38.910;2022-11-15T15:43:37;5.47;72.20
75688;HTU21D;64300;45.034;38.910;2022-11-15T15:46:07;5.46;72.19
75688;HTU21D;64300;45.034;38.910;2022-11-15T15:48:34;5.46;72.18
75688;HTU21D;64300;45.034;38.910;2022-11-15T15:51:03;5.43;72.19
75688;HTU21D;64300;45.034;38.910;2022-11-15T15:53:29;5.40;72.23
75688;HTU21D;64300;45.034;38.910;2022-11-15T15:55:55;5.39;72.33
75688;HTU21D;64300;45.034;38.910;2022-11-15T15:58:21;5.40;72.58
75688;HTU21D;64300;45.034;38.910;2022-11-15T16:00:53;5.42;72.55
75688;HTU21D;64300;45.034;38.910;2022-11-15T16:03:19;5.42;72.57
75688;HTU21D;64300;45.034;38.910;2022-11-15T16:05:46;5.41;72.64
75688;HTU21D;64300;45.034;38.910;2022-11-15T16:08:19;5.42;72.58
75688;HTU21D;64300;45.034;38.910;2022-11-15T16:10:46;5.40;72.68
75688;HTU21D;64300;45.034;38.910;2022-11-15T16:13:15;5.43;72.67
75688;HTU21D;64300;45.034;38.910;2022-11-15T16:15:42;5.43;72.66
75688;HTU21D;64300;45.034;38.910;2022-11-15T16:18:14;5.42;72.61
75688;HTU21D;64300;45.034;38.910;2022-11-15T16:20:48;5.39;72.62
75688;HTU21D;64300;45.034;38.910;2022-11-15T16:23:22;5.38;72.68
75688;HTU21D;64300;45.034;38.910;2022-11-15T16:25:54;5.36;72.67
75688;HTU21D;64300;45.034;38.910;2022-11-15T16:28:26;5.35;72.68
75688;HTU21D;64300;45.034;38.910;2022-11-15T16:31:04;5.34;72.67
75688;HTU21D;64300;45.034;38.910;2022-11-15T16:33:31;5.33;72.72
75688;HTU21D;64300;45.034;38.910;2022-11-15T16:36:00;5.31;72.74
75688;HTU21D;64300;45.034;38.910;2022-11-15T16:38:26;5.30;72.79
75688;HTU21D;64300;45.034;38.910;2022-11-15T16:40:52;5.30;72.78
75688;HTU21D;64300;45.034;38.910;2022-11-15T16:43:18;5.24;72.87
75688;HTU21D;64300;45.034;38.910;2022-11-15T16:45:45;5.25;72.87
75688;HTU21D;64300;45.034;38.910;2022-11-15T16:48:37;5.25;72.76
75688;HTU21D;64300;45.034;38.910;2022-11-15T16:51:04;5.21;72.77
75688;HTU21D;64300;45.034;38.910;2022-11-15T16:53:31;5.16;72.90
75688;HTU21D;64300;45.034;38.910;2022-11-15T16:55:57;5.11;72.96
75688;HTU21D;64300;45.034;38.910;2022-11-15T16:58:23;5.07;73.05
75688;HTU21D;64300;45.034;38.910;2022-11-15T17:00:54;5.06;73.12
75688;HTU21D;64300;45.034;38.910;2022-11-15T17:03:23;5.06;73.12
75688;HTU21D;64300;45.034;38.910;2022-11-15T17:05:50;5.06;73.06
75688;HTU21D;64300;45.034;38.910;2022-11-15T17:08:19;5.06;73.08
75688;HTU21D;64300;45.034;38.910;2022-11-15T17:10:48;5.09;72.99
75688;HTU21D;64300;45.034;38.910;2022-11-15T17:13:14;5.11;72.96
75688;HTU21D;64300;45.034;38.910;2022-11-15T17:15:40;5.12;72.93
75688;HTU21D;64300;45.034;38.910;2022-11-15T17:18:10;5.13;72.82
75688;HTU21D;64300;45.034;38.910;2022-11-15T17:20:37;5.13;72.77
75688;HTU21D;64300;45.034;38.910;2022-11-15T17:23:03;5.13;72.80
75688;HTU21D;64300;45.034;38.910;2022-11-15T17:25:29;5.10;72.88
75688;HTU21D;64300;45.034;38.910;2022-11-15T17:27:55;5.10;72.83
75688;HTU21D;64300;45.034;38.910;2022-11-15T17:30:21;5.09;72.87
75688;HTU21D;64300;45.034;38.910;2022-11-15T17:32:47;5.09;72.99
75688;HTU21D;64300;45.034;38.910;2022-11-15T17:35:15;5.07;73.03
75688;HTU21D;64300;45.034;38.910;2022-11-15T17:37:43;5.09;73.12
75688;HTU21D;64300;45.034;38.910;2022-11-15T17:40:10;5.09;73.12
75688;HTU21D;64300;45.034;38.910;2022-11-15T17:42:40;5.09;73.13
75688;HTU21D;64300;45.034;38.910;2022-11-15T17:45:10;5.09;73.22
75688;HTU21D;64300;45.034;38.910;2022-11-15T17:47:39;5.08;73.14
75688;HTU21D;64300;45.034;38.910;2022-11-15T17:54:10;5.05;73.12
75688;HTU21D;64300;45.034;38.910;2022-11-15T17:56:41;4.98;73.21
75688;HTU21D;64300;45.034;38.910;2022-11-15T17:59:07;4.95;73.19
75688;HTU21D;64300;45.034;38.910;2022-11-15T18:01:35;4.90;73.28
75688;HTU21D;64300;45.034;38.910;2022-11-15T18:04:06;4.84;73.36
75688;HTU21D;64300;45.034;38.910;2022-11-15T18:10:19;4.74;73.50
75688;HTU21D;64300;45.034;38.910;2022-11-15T18:12:45;4.69;73.57
75688;HTU21D;64300;45.034;38.910;2022-11-15T18:15:11;4.67;73.57
75688;HTU21D;64300;45.034;38.910;2022-11-15T18:17:37;4.62;73.77
75688;HTU21D;64300;45.034;38.910;2022-11-15T18:20:04;4.58;73.86
75688;HTU21D;64300;45.034;38.910;2022-11-15T18:22:30;4.57;73.96
75688;HTU21D;64300;45.034;38.910;2022-11-15T18:24:56;4.56;73.99
75688;HTU21D;64300;45.034;38.910;2022-11-15T18:27:25;4.57;74.08
75688;HTU21D;64300;45.034;38.910;2022-11-15T18:29:52;4.59;74.15
75688;HTU21D;64300;45.034;38.910;2022-11-15T18:32:18;4.58;74.12
75688;HTU21D;64300;45.034;38.910;2022-11-15T18:34:44;4.57;74.11
75688;HTU21D;64300;45.034;38.910;2022-11-15T18:37:10;4.54;74.10
75688;HTU21D;64300;45.034;38.910;2022-11-15T18:39:36;4.54;74.12
75688;HTU21D;64300;45.034;38.910;2022-11-15T18:42:02;4.53;74.16
75688;HTU21D;64300;45.034;38.910;2022-11-15T18:44:29;4.51;74.15
75688;HTU21D;64300;45.034;38.910;2022-11-15T18:46:55;4.51;74.14
75688;HTU21D;64300;45.034;38.910;2022-11-15T18:49:21;4.47;74.12
75688;HTU21D;64300;45.034;38.910;2022-11-15T18:51:47;4.42;74.22
75688;HTU21D;64300;45.034;38.910;2022-11-15T18:54:14;4.34;74.41
75688;HTU21D;64300;45.034;38.910;2022-11-15T18:56:41;4.34;74.44
75688;HTU21D;64300;45.034;38.910;2022-11-15T18:59:09;4.32;74.56
75688;HTU21D;64300;45.034;38.910;2022-11-15T19:01:37;4.32;74.59
75688;HTU21D;64300;45.034;38.910;2022-11-15T19:04:10;4.31;74.57
75688;HTU21D;64300;45.034;38.910;2022-11-15T19:06:42;4.32;74.62
75688;HTU21D;64300;45.034;38.910;2022-11-15T19:09:10;4.31;74.60
75688;HTU21D;64300;45.034;38.910;2022-11-15T19:11:38;4.31;74.61
75688;HTU21D;64300;45.034;38.910;2022-11-15T19:14:12;4.32;74.65
75688;HTU21D;64300;45.034;38.910;2022-11-15T19:16:42;4.32;74.71